»·PEaware :: SWA663 KHOU-KBUR

SWA663 :: KHOU-KBUR

FLIGHT INFORMATION

Flight Status: Arrived
Operator:
Southwest Airlines
More flights by this operator :: More flights under this callsign
Pilot: Andrew C. (28419)
Aircraft: BOEING 737-700
(B737)
More flights by this aircraft type
Origin: KHOU Hobby
United States
Destination: KBUR Bob Hope-Burbank
United States
More flights between these airports :: More routes between these airports
Route: RETYR5 JCT J2 ELP SSO J50 TFD PHRED THRNE3
File this flight plan on PilotEdge
Remarks: RMK / SIMBRIEF
Altitude:
(Current/Filed)
40,000ft
Speed:
(Current/Filed)
454kts
Departed: 09-Oct-20 04:21 PM
Arrived: 09-Oct-20 07:12 PM
Distance/Time
Traveled:
1203nm/2:51
Distance/Time
To Go:
Arrived

Flight Plot

Page will automatically refresh every two minutes.

Flight plan parsing failed; only flown route is shown


Map Options




Map Legend


Flown Route
Filed Route
Departure Airport
Arrival Airport
Navaid (VOR, NDB)
Fix

Horizontal Profiles

Position Reports

Time Latitude Longitude Heading Altitude Ground
Speed
09-Oct-20 15:56 29.652200 -95.275339 20 49ft 0kts
09-Oct-20 15:58 29.652200 -95.275339 20 49ft 0kts
09-Oct-20 15:59 29.652200 -95.275339 20 49ft 0kts
09-Oct-20 16:00 29.652199 -95.275339 20 49ft 0kts
09-Oct-20 16:01 29.652200 -95.275339 20 49ft 0kts
09-Oct-20 16:02 29.652200 -95.275339 20 48ft 0kts
09-Oct-20 16:03 29.652200 -95.275339 20 48ft 0kts
09-Oct-20 16:04 29.652200 -95.275339 20 48ft 0kts
09-Oct-20 16:05 29.652200 -95.275339 20 48ft 0kts
09-Oct-20 16:06 29.652200 -95.275339 20 48ft 0kts
09-Oct-20 16:07 29.652200 -95.275339 20 48ft 0kts
09-Oct-20 16:08 29.652200 -95.275339 20 48ft 0kts
09-Oct-20 16:09 29.652200 -95.275339 20 48ft 0kts
09-Oct-20 16:10 29.652200 -95.275339 20 48ft 0kts
09-Oct-20 16:10 29.652200 -95.275339 20 48ft 0kts
09-Oct-20 16:12 29.652200 -95.275339 20 48ft 0kts
09-Oct-20 16:12 29.652012 -95.275421 20 49ft 2kts
09-Oct-20 16:14 29.651444 -95.275861 83 49ft 1kts
09-Oct-20 16:14 29.651442 -95.275957 89 48ft 0kts
09-Oct-20 16:16 29.651435 -95.275723 96 49ft 10kts
09-Oct-20 16:16 29.648431 -95.278242 222 49ft 17kts
09-Oct-20 16:17 29.644850 -95.275931 133 49ft 19kts
09-Oct-20 16:18 29.641388 -95.271837 132 49ft 16kts
09-Oct-20 16:19 29.637683 -95.267627 161 49ft 17kts
09-Oct-20 16:20 29.645864 -95.279733 315 162ft 153kts
09-Oct-20 16:21 29.660143 -95.332417 286 2375ft 218kts
09-Oct-20 16:22 29.673310 -95.428060 286 5488ft 274kts
09-Oct-20 16:23 29.696181 -95.596113 284 11265ft 312kts
09-Oct-20 16:24 29.718950 -95.764603 282 16294ft 344kts
09-Oct-20 16:25 29.793902 -95.929674 299 21090ft 363kts
09-Oct-20 16:26 29.879338 -96.095664 297 25094ft 382kts
09-Oct-20 16:27 29.947901 -96.277734 278 28358ft 395kts
09-Oct-20 16:28 29.981023 -96.488795 278 31471ft 408kts
09-Oct-20 16:29 30.013481 -96.699258 277 34996ft 396kts
09-Oct-20 16:30 30.049506 -96.935451 276 37924ft 392kts
09-Oct-20 16:31 30.081600 -97.148231 275 39668ft 396kts
09-Oct-20 16:32 30.110713 -97.343258 275 39865ft 416kts
09-Oct-20 16:33 30.140364 -97.544080 275 39866ft 415kts
09-Oct-20 16:34 30.170780 -97.751070 276 39870ft 417kts
09-Oct-20 16:35 30.215906 -97.970907 278 39871ft 419kts
09-Oct-20 16:36 30.260084 -98.186273 278 39902ft 420kts
09-Oct-20 16:37 30.308851 -98.424257 279 39904ft 419kts
09-Oct-20 16:38 30.361450 -98.671272 278 39908ft 417kts
09-Oct-20 16:39 30.413307 -98.917513 278 39909ft 416kts
09-Oct-20 16:40 30.465450 -99.167548 278 39925ft 416kts
09-Oct-20 16:41 30.516891 -99.416721 278 39923ft 415kts
09-Oct-20 16:42 30.567985 -99.666695 278 39927ft 415kts
09-Oct-20 16:43 30.610655 -99.918827 273 39942ft 412kts
09-Oct-20 16:44 30.642020 -100.173826 274 39977ft 414kts
09-Oct-20 16:45 30.672927 -100.428941 274 39970ft 415kts
09-Oct-20 16:46 30.703343 -100.684310 274 39969ft 415kts
09-Oct-20 16:47 30.733007 -100.940879 274 39969ft 416kts
09-Oct-20 16:48 30.762717 -101.198946 274 39972ft 417kts
09-Oct-20 16:49 30.791975 -101.457754 275 39971ft 418kts
09-Oct-20 16:50 30.820666 -101.716343 274 39975ft 419kts
09-Oct-20 16:51 30.848874 -101.975355 275 39974ft 419kts
09-Oct-20 16:52 30.862960 -102.106403 275 39973ft 420kts
09-Oct-20 16:53 30.877674 -102.244717 275 39972ft 419kts
09-Oct-20 16:54 30.892268 -102.383368 275 39971ft 421kts
09-Oct-20 16:55 30.906722 -102.522107 275 39970ft 420kts
09-Oct-20 16:56 30.921045 -102.661016 275 39972ft 420kts
09-Oct-20 16:57 30.935118 -102.799250 275 39974ft 420kts
09-Oct-20 16:58 30.949107 -102.937888 275 39973ft 419kts
09-Oct-20 16:59 30.978938 -103.073620 286 39984ft 423kts
09-Oct-20 17:00 31.016077 -103.207681 286 39998ft 423kts
09-Oct-20 17:01 31.052881 -103.341923 286 39996ft 423kts
09-Oct-20 17:02 31.089469 -103.475974 286 39980ft 423kts
09-Oct-20 17:03 31.125947 -103.610240 286 39964ft 423kts
09-Oct-20 17:04 31.162293 -103.744735 285 39953ft 422kts
09-Oct-20 17:05 31.198259 -103.878290 285 39938ft 421kts
09-Oct-20 17:06 31.234308 -104.012802 285 39977ft 421kts
09-Oct-20 17:07 31.270170 -104.147241 285 40054ft 422kts
09-Oct-20 17:08 31.305888 -104.281758 285 40071ft 422kts
09-Oct-20 17:09 31.341470 -104.416397 285 40070ft 422kts
09-Oct-20 17:10 31.376839 -104.550887 285 40070ft 422kts
09-Oct-20 17:11 31.412250 -104.686148 285 40083ft 422kts
09-Oct-20 17:12 31.447320 -104.820774 285 40083ft 422kts
09-Oct-20 17:13 31.482324 -104.955770 285 40087ft 421kts
09-Oct-20 17:14 31.517208 -105.090910 284 40096ft 422kts
09-Oct-20 17:15 31.551634 -105.224965 284 40099ft 421kts
09-Oct-20 17:16 31.585054 -105.355696 284 40098ft 420kts
09-Oct-20 17:17 31.617506 -105.487174 284 40097ft 420kts
09-Oct-20 17:18 31.650649 -105.618120 284 40097ft 419kts
09-Oct-20 17:19 31.683650 -105.749209 283 40102ft 419kts
09-Oct-20 17:20 31.716525 -105.880302 283 40092ft 418kts
09-Oct-20 17:21 31.749209 -106.011310 283 40068ft 419kts
09-Oct-20 17:22 31.781759 -106.142374 283 40055ft 417kts
09-Oct-20 17:23 31.814129 -106.273514 282 40054ft 418kts
09-Oct-20 17:24 31.836461 -106.407008 278 40053ft 416kts
09-Oct-20 17:25 31.858288 -106.540665 278 40052ft 418kts
09-Oct-20 17:26 31.880044 -106.674839 278 40056ft 417kts
09-Oct-20 17:27 31.901613 -106.808847 278 40057ft 417kts
09-Oct-20 17:28 31.922965 -106.942377 278 40070ft 416kts
09-Oct-20 17:29 31.944268 -107.076514 278 40082ft 416kts
09-Oct-20 17:30 31.965335 -107.210058 278 40082ft 415kts
09-Oct-20 17:31 31.986257 -107.343653 277 40082ft 415kts
09-Oct-20 17:32 32.007044 -107.477353 277 40081ft 414kts
09-Oct-20 17:33 32.027545 -107.610082 277 40080ft 413kts
09-Oct-20 17:34 32.047991 -107.743651 277 40086ft 414kts
09-Oct-20 17:35 32.068271 -107.876905 277 40085ft 413kts
09-Oct-20 17:36 32.088378 -108.010001 277 40085ft 413kts
09-Oct-20 17:37 32.108371 -108.143315 277 40098ft 413kts
09-Oct-20 17:38 32.128247 -108.276838 277 40115ft 413kts
09-Oct-20 17:39 32.147968 -108.410341 277 40114ft 412kts
09-Oct-20 17:40 32.167453 -108.543205 276 40113ft 412kts
09-Oct-20 17:41 32.186823 -108.676348 276 40118ft 411kts
09-Oct-20 17:42 32.206043 -108.809601 276 40119ft 411kts
09-Oct-20 17:43 32.225031 -108.942007 276 40118ft 410kts
09-Oct-20 17:44 32.243934 -109.074897 276 40095ft 410kts
09-Oct-20 17:46 32.262639 -109.207381 276 40064ft 408kts
09-Oct-20 17:47 32.287404 -109.338351 283 40060ft 412kts
09-Oct-20 17:48 32.319339 -109.467936 282 40059ft 410kts
09-Oct-20 17:49 32.350830 -109.597447 282 40045ft 410kts
09-Oct-20 17:50 32.382194 -109.727201 282 40035ft 410kts
09-Oct-20 17:51 32.413429 -109.856936 282 40019ft 410kts
09-Oct-20 17:52 32.444498 -109.986620 282 40000ft 410kts
09-Oct-20 17:53 32.475394 -110.116229 282 39983ft 409kts
09-Oct-20 17:54 32.506158 -110.245954 282 39979ft 410kts
09-Oct-20 17:55 32.536824 -110.375834 282 39978ft 410kts
09-Oct-20 17:56 32.567275 -110.505546 282 39977ft 409kts
09-Oct-20 17:57 32.597331 -110.635399 281 39976ft 409kts
09-Oct-20 17:58 32.627318 -110.765610 281 39984ft 409kts
09-Oct-20 17:59 32.657464 -110.895988 281 39982ft 409kts
09-Oct-20 18:00 32.687415 -111.026204 281 39938ft 410kts
09-Oct-20 18:01 32.717228 -111.156493 281 39900ft 409kts
09-Oct-20 18:02 32.746903 -111.286846 281 39898ft 409kts
09-Oct-20 18:03 32.776473 -111.417454 280 39897ft 409kts
09-Oct-20 18:04 32.805853 -111.547853 280 39896ft 409kts
09-Oct-20 18:04 32.830200 -111.656634 280 39897ft 409kts
09-Oct-20 18:05 32.858935 -111.787256 280 39903ft 409kts
09-Oct-20 18:06 32.889107 -111.917893 285 39885ft 412kts
09-Oct-20 18:07 32.933782 -112.043869 287 39846ft 414kts
09-Oct-20 18:08 32.978494 -112.170317 287 39830ft 414kts
09-Oct-20 18:09 33.023030 -112.296784 287 39837ft 415kts
09-Oct-20 18:10 33.067410 -112.423278 287 39843ft 414kts
09-Oct-20 18:11 33.111760 -112.550214 287 39854ft 414kts
09-Oct-20 18:12 33.155820 -112.676787 287 39861ft 413kts
09-Oct-20 18:13 33.199747 -112.803525 287 39862ft 413kts
09-Oct-20 18:14 33.243649 -112.930630 287 39857ft 413kts
09-Oct-20 18:15 33.287296 -113.057493 287 39851ft 413kts
09-Oct-20 18:16 33.330866 -113.184632 287 39850ft 413kts
09-Oct-20 18:17 33.374284 -113.311830 287 39850ft 413kts
09-Oct-20 18:18 33.417478 -113.438869 287 39849ft 413kts
09-Oct-20 18:19 33.460544 -113.566043 287 39852ft 413kts
09-Oct-20 18:20 33.503578 -113.693687 286 39872ft 413kts
09-Oct-20 18:21 33.546471 -113.821447 286 39884ft 414kts
09-Oct-20 18:22 33.589382 -113.949642 286 39895ft 414kts
09-Oct-20 18:23 33.632159 -114.078055 286 39881ft 414kts
09-Oct-20 18:24 33.654757 -114.210542 272 39840ft 406kts
09-Oct-20 18:25 33.667994 -114.344755 272 39824ft 405kts
09-Oct-20 18:26 33.681190 -114.478725 272 39823ft 405kts
09-Oct-20 18:27 33.694229 -114.612629 272 39817ft 397kts
09-Oct-20 18:28 33.706625 -114.742011 272 39831ft 393kts
09-Oct-20 18:29 33.719086 -114.873147 272 38871ft 411kts
09-Oct-20 18:30 33.731857 -115.008684 273 36337ft 404kts
09-Oct-20 18:31 33.744179 -115.141351 273 33833ft 397kts
09-Oct-20 18:32 33.756700 -115.270854 274 31455ft 387kts
09-Oct-20 18:33 33.769563 -115.397508 275 29103ft 377kts
09-Oct-20 18:34 33.782067 -115.518939 275 28871ft 370kts
09-Oct-20 18:35 33.794463 -115.640654 275 28868ft 366kts
09-Oct-20 18:36 33.806240 -115.762556 274 28874ft 367kts
09-Oct-20 18:37 33.818026 -115.881997 275 27272ft 358kts
09-Oct-20 18:38 33.829971 -115.999804 275 25081ft 352kts
09-Oct-20 18:39 33.841507 -116.114929 275 23015ft 344kts
09-Oct-20 18:40 33.850315 -116.227883 274 21038ft 335kts
09-Oct-20 18:41 33.858736 -116.337779 274 19145ft 326kts
09-Oct-20 18:42 33.868530 -116.444891 275 17292ft 318kts
09-Oct-20 18:43 33.879696 -116.548829 279 15899ft 311kts
09-Oct-20 18:44 33.896159 -116.651435 279 14986ft 308kts
09-Oct-20 18:45 33.912237 -116.752977 279 14881ft 312kts
09-Oct-20 18:46 33.928433 -116.855367 279 14759ft 305kts
09-Oct-20 18:47 33.943999 -116.954406 280 13071ft 299kts
09-Oct-20 18:48 33.966349 -117.051145 285 11792ft 298kts
09-Oct-20 18:49 33.988222 -117.142592 285 11079ft 290kts
09-Oct-20 18:50 34.010849 -117.236886 285 10998ft 295kts
09-Oct-20 18:51 34.033516 -117.331736 285 10999ft 294kts
09-Oct-20 18:52 34.055785 -117.425339 285 10356ft 284kts
09-Oct-20 18:53 34.075712 -117.514222 280 9997ft 275kts
09-Oct-20 18:54 34.089633 -117.604301 280 9996ft 273kts
09-Oct-20 18:55 34.103502 -117.694651 279 9990ft 273kts
09-Oct-20 18:56 34.117262 -117.784376 280 10000ft 272kts
09-Oct-20 18:57 34.130877 -117.873279 279 9990ft 269kts
09-Oct-20 18:58 34.144484 -117.962055 280 8513ft 266kts
09-Oct-20 18:59 34.150911 -118.049665 264 8008ft 265kts
09-Oct-20 19:00 34.143454 -118.137201 264 7316ft 262kts
09-Oct-20 19:01 34.136201 -118.223850 264 6057ft 251kts
09-Oct-20 19:02 34.129783 -118.301143 264 6018ft 224kts
09-Oct-20 19:03 34.123568 -118.375980 264 5950ft 221kts
09-Oct-20 19:04 34.117579 -118.450186 264 4912ft 220kts
09-Oct-20 19:05 34.112098 -118.523096 265 3934ft 217kts
09-Oct-20 19:06 34.148124 -118.560806 351 3310ft 171kts
09-Oct-20 19:07 34.183313 -118.532034 59 3299ft 174kts
09-Oct-20 19:08 34.200141 -118.482981 92 2681ft 146kts
09-Oct-20 19:09 34.198850 -118.436022 93 1913ft 141kts
09-Oct-20 19:10 34.198146 -118.389788 93 1221ft 150kts
09-Oct-20 19:11 34.197720 -118.355905 90 785ft 20kts
09-Oct-20 19:12 34.197336 -118.354167 114 785ft 0kts
09-Oct-20 19:13 34.197181 -118.352356 91 785ft 10kts
09-Oct-20 19:14 34.196851 -118.350613 172 785ft 1kts
09-Oct-20 19:15 34.196822 -118.350609 174 785ft 0kts
09-Oct-20 19:16 34.196822 -118.350609 174 785ft 0kts
09-Oct-20 19:17 34.196822 -118.350609 174 785ft 0kts
09-Oct-20 19:18 34.196822 -118.350609 174 785ft 0kts
09-Oct-20 19:19 34.196822 -118.350609 174 785ft 0kts
09-Oct-20 19:20 34.196822 -118.350609 174 785ft 0kts
09-Oct-20 19:21 34.196822 -118.350609 174 785ft 0kts
09-Oct-20 19:22 34.196822 -118.350609 174 785ft 0kts
09-Oct-20 19:23 34.196822 -118.350609 174 785ft 0kts
09-Oct-20 19:24 34.196822 -118.350609 174 785ft 0kts
09-Oct-20 19:25 34.196822 -118.350609 174 785ft 0kts

Navigation Log

Ident Type
Flight plan parsing failed, navigation log unavailable